createdAt,value
2016-04-13T00:00:00.329Z,9.65
2016-04-13T00:01:00.332Z,9.5
2016-04-13T00:02:00.350Z,9.55
2016-04-13T00:03:00.368Z,9.55
2016-04-13T00:04:00.449Z,9.5
2016-04-13T00:05:00.421Z,9.44
2016-04-13T00:06:00.470Z,9.55
2016-04-13T00:07:00.457Z,9.44
2016-04-13T00:08:00.475Z,9.51
2016-04-13T00:09:00.467Z,9.44
2016-04-13T00:10:00.501Z,9.41
2016-04-13T00:11:00.503Z,9.4
2016-04-13T00:12:00.537Z,9.56
2016-04-13T00:13:00.556Z,9.41
2016-04-13T00:14:00.574Z,9.47
2016-04-13T00:15:00.608Z,9.5
2016-04-13T00:16:00.611Z,9.47
2016-04-13T00:17:00.613Z,9.44
2016-04-13T00:18:00.631Z,9.44
2016-04-13T00:19:00.650Z,9.47
2016-04-13T00:20:06.652Z,9.41
2016-04-13T00:21:00.859Z,9.44
2016-04-13T00:22:00.706Z,9.44
2016-04-13T00:23:00.723Z,9.48
2016-04-13T00:24:00.742Z,9.41
2016-04-13T00:25:00.760Z,9.41
2016-04-13T00:26:00.778Z,9.51
2016-04-13T00:27:00.797Z,9.48
2016-04-13T00:28:00.799Z,9.47
2016-04-13T00:29:00.833Z,9.46
2016-04-13T00:30:00.852Z,9.37
2016-04-13T00:31:00.854Z,9.37
2016-04-13T00:32:00.873Z,9.36
2016-04-13T00:33:00.907Z,9.39
2016-04-13T00:34:00.909Z,9.36
2016-04-13T00:35:00.990Z,9.47
2016-04-13T00:36:01.118Z,9.34
2016-04-13T00:37:00.995Z,9.29
2016-04-13T00:38:00.998Z,9.28
2016-04-13T00:39:01.078Z,9.28
2016-04-13T00:40:01.019Z,9.25
2016-04-13T00:41:01.085Z,9.26
2016-04-13T00:42:01.087Z,9.29
2016-04-13T00:43:01.074Z,9.28
2016-04-13T00:44:01.123Z,9.22
2016-04-13T00:45:01.111Z,9.26
2016-04-13T00:46:01.114Z,9.28
2016-04-13T00:47:01.148Z,9.25
2016-04-13T00:48:01.353Z,9.23
2016-04-13T00:49:01.184Z,9.29
2016-04-13T00:50:01.172Z,9.21
2016-04-13T00:51:01.095Z,9.31
2016-04-13T00:52:01.238Z,9.34
2016-04-13T00:53:01.241Z,9.31
2016-04-13T00:54:01.260Z,9.39
2016-04-13T00:55:01.278Z,9.39
2016-04-13T00:56:01.312Z,9.4
2016-04-13T00:57:01.315Z,9.39
2016-04-13T00:58:01.333Z,9.36
2016-04-13T00:59:01.351Z,9.32
2016-04-13T01:00:01.369Z,9.32
2016-04-13T01:01:01.357Z,9.31
2016-04-13T01:02:01.390Z,9.23
2016-04-13T01:03:01.409Z,9.29
2016-04-13T01:04:01.443Z,9.22
2016-04-13T01:05:01.445Z,9.18
2016-04-13T01:06:01.417Z,9.08
2016-04-13T01:07:01.482Z,9.04
2016-04-13T01:08:01.485Z,9.06
2016-04-13T01:09:01.363Z,8.97
2016-04-13T01:10:01.538Z,8.97
2016-04-13T01:11:01.556Z,8.89
2016-04-13T01:12:01.573Z,8.94
2016-04-13T01:13:01.581Z,8.91
2016-04-13T01:14:01.599Z,8.92
2016-04-13T01:15:01.616Z,8.88
2016-04-13T01:16:01.619Z,8.91
2016-04-13T01:17:01.654Z,8.92
2016-04-13T01:18:01.671Z,8.85
2016-04-13T01:19:01.674Z,8.95
2016-04-13T01:20:01.693Z,8.94
2016-04-13T01:21:01.665Z,8.99
2016-04-13T01:22:01.730Z,8.99
2016-04-13T01:23:01.767Z,9.08
2016-04-13T01:24:01.770Z,9.04
2016-04-13T01:25:01.789Z,9.08
2016-04-13T01:26:01.807Z,9.08
2016-04-13T01:27:01.825Z,9.04
2016-04-13T01:28:01.828Z,8.99
2016-04-13T01:29:01.861Z,9.02
2016-04-13T01:30:01.880Z,8.97
2016-04-13T01:31:01.883Z,9.03
2016-04-13T01:32:01.901Z,8.95
2016-04-13T01:33:01.919Z,8.85
2016-04-13T01:34:01.954Z,8.78
2016-04-13T01:35:01.956Z,8.84
2016-04-13T01:36:01.865Z,8.74
2016-04-13T01:37:02.007Z,8.76
2016-04-13T01:38:01.995Z,8.7
2016-04-13T01:39:02.029Z,8.66
2016-04-13T01:40:02.032Z,8.66
2016-04-13T01:41:02.066Z,8.66
2016-04-13T01:42:02.068Z,8.55
2016-04-13T01:43:02.103Z,8.49
2016-04-13T01:44:02.121Z,8.56
2016-04-13T01:45:02.140Z,8.49
2016-04-13T01:46:02.157Z,8.46
2016-04-13T01:47:02.160Z,8.44
2016-04-13T01:48:02.195Z,8.41
2016-04-13T01:50:02.231Z,8.53
2016-04-13T01:51:02.249Z,8.63
2016-04-13T01:52:02.752Z,8.63
2016-04-13T01:53:02.270Z,8.76
2016-04-13T01:54:02.272Z,8.73
2016-04-13T01:55:02.317Z,8.79
2016-04-13T01:56:02.362Z,8.81
2016-04-13T01:57:02.424Z,8.85
2016-04-13T01:58:02.487Z,8.92
2016-04-13T01:59:02.562Z,9.04
2016-04-13T02:00:02.618Z,9.06
2016-04-13T02:01:02.635Z,9.14
2016-04-13T02:02:02.669Z,9.16
2016-04-13T02:03:02.718Z,9.23
2016-04-13T02:04:02.735Z,9.34
2016-04-13T02:05:02.767Z,9.36
2016-04-13T02:06:02.776Z,9.39
2016-04-13T02:07:02.814Z,9.39
2016-04-13T02:08:02.823Z,9.37
2016-04-13T02:09:02.863Z,9.32
2016-04-13T02:10:02.884Z,9.36
2016-04-13T02:11:02.889Z,9.32
2016-04-13T02:12:02.910Z,9.31
2016-04-13T02:13:02.929Z,9.25
2016-04-13T02:14:02.951Z,9.25
2016-04-13T02:15:02.970Z,9.26
2016-04-13T02:16:02.989Z,9.25
2016-04-13T02:17:03.009Z,9.28
2016-04-13T02:18:03.028Z,9.25
2016-04-13T02:19:03.031Z,9.31
2016-04-13T02:20:03.049Z,9.31
2016-04-13T02:21:03.069Z,9.28
2016-04-13T02:22:03.103Z,9.29
2016-04-13T02:23:03.122Z,9.39
2016-04-13T02:24:03.125Z,9.34
2016-04-13T02:25:03.128Z,9.34
2016-04-13T02:26:03.146Z,9.46
2016-04-13T02:27:03.180Z,9.48
2016-04-13T02:28:03.198Z,9.37
2016-04-13T02:29:03.217Z,9.41
2016-04-13T02:30:03.235Z,9.37
2016-04-13T02:31:03.254Z,9.39
2016-04-13T02:32:06.272Z,9.46
2016-04-13T02:33:03.290Z,9.34
2016-04-13T02:34:03.293Z,9.4
2016-04-13T02:35:03.311Z,9.41
2016-04-13T02:36:03.345Z,9.51
2016-04-13T02:37:03.348Z,9.32
2016-04-13T02:38:03.366Z,9.47
2016-04-13T02:39:03.369Z,9.43
2016-04-13T02:40:03.403Z,9.5
2016-04-13T02:41:17.499Z,9.48
2016-04-13T02:42:03.752Z,9.56
2016-04-13T02:43:03.458Z,9.48
2016-04-13T02:44:03.460Z,9.51
2016-04-13T02:45:03.478Z,9.64
2016-04-13T02:46:03.496Z,9.72
2016-04-13T02:47:03.531Z,9.73
2016-04-13T02:48:03.549Z,9.74
2016-04-13T02:49:03.552Z,9.73
2016-04-13T02:50:03.570Z,9.79
2016-04-13T02:51:03.588Z,9.76
2016-04-13T02:52:03.623Z,9.76
2016-04-13T02:53:03.625Z,9.76
2016-04-13T02:54:03.643Z,9.87
2016-04-13T02:55:03.645Z,9.92
2016-04-13T02:56:03.664Z,9.87
2016-04-13T02:57:03.714Z,9.8
2016-04-13T02:58:03.716Z,9.86
2016-04-13T02:59:03.719Z,9.89
2016-04-13T03:00:03.737Z,9.91
2016-04-13T03:01:03.772Z,9.87
2016-04-13T03:02:03.775Z,9.86
2016-04-13T03:03:03.792Z,9.99
2016-04-13T03:04:03.826Z,10.01
2016-04-13T03:05:03.829Z,9.98
2016-04-13T03:06:03.848Z,10.04
2016-04-13T03:07:03.866Z,10.01
2016-04-13T03:08:03.900Z,10.02
2016-04-13T03:09:03.933Z,10.02
2016-04-13T03:10:03.905Z,10.04
2016-04-13T03:11:03.939Z,10.02
2016-04-13T03:12:03.957Z,10.09
2016-04-13T03:13:03.975Z,10.09
2016-04-13T03:14:03.227Z,10.02
2016-04-13T03:15:04.013Z,10.05
2016-04-13T03:16:04.031Z,10.02
2016-04-13T03:17:04.033Z,10.02
2016-04-13T03:18:04.068Z,10.05
2016-04-13T03:19:04.070Z,10.04
2016-04-13T03:20:04.088Z,10.05
2016-04-13T03:21:04.419Z,10.02
2016-04-13T03:22:04.110Z,10.07
2016-04-13T03:23:04.143Z,10.02
2016-04-13T03:24:04.161Z,9.91
2016-04-13T03:25:04.179Z,10.01
2016-04-13T03:26:04.198Z,10.02
2016-04-13T03:27:04.216Z,10.02
2016-04-13T03:28:04.250Z,10.07
2016-04-13T03:29:04.253Z,10.02
2016-04-13T03:30:04.271Z,10.04
2016-04-13T03:31:04.274Z,10.09
2016-04-13T03:32:04.323Z,10.12
2016-04-13T03:33:04.326Z,10.15
2016-04-13T03:34:04.345Z,10.13
2016-04-13T03:35:04.347Z,10.09
2016-04-13T03:36:04.366Z,10.04
2016-04-13T03:37:04.384Z,9.97
2016-04-13T03:38:04.402Z,10.02
2016-04-13T03:39:04.420Z,10.01
2016-04-13T03:40:04.455Z,10.02
2016-04-13T03:41:04.462Z,9.97
2016-04-13T03:42:04.793Z,10.01
2016-04-13T03:43:04.513Z,9.95
2016-04-13T03:44:04.517Z,9.94
2016-04-13T03:45:04.519Z,9.97
2016-04-13T03:46:04.538Z,9.87
2016-04-13T03:47:04.556Z,9.94
2016-04-13T03:48:04.590Z,9.94
2016-04-13T03:49:04.609Z,9.91
2016-04-13T03:50:04.626Z,9.91
2016-04-13T03:51:04.629Z,9.91
2016-04-13T03:52:04.648Z,9.84
2016-04-13T03:53:04.665Z,9.86
2016-04-13T03:54:04.700Z,9.76
2016-04-13T03:55:04.718Z,9.8
2016-04-13T03:56:04.549Z,9.86
2016-04-13T03:57:04.739Z,9.74
2016-04-13T03:58:04.742Z,9.76
2016-04-13T03:59:04.761Z,9.84
2016-04-13T04:00:04.795Z,9.76
2016-04-13T04:01:04.812Z,9.73
2016-04-13T04:02:04.831Z,9.8
2016-04-13T04:03:04.833Z,9.73
2016-04-13T04:04:04.852Z,9.76
2016-04-13T04:05:04.870Z,9.76
2016-04-13T04:06:07.904Z,9.68
2016-04-13T04:07:04.907Z,9.68
2016-04-13T04:08:04.925Z,9.68
2016-04-13T04:09:04.944Z,9.73
2016-04-13T04:10:04.946Z,9.68
2016-04-13T04:11:04.980Z,9.69
2016-04-13T04:12:04.999Z,9.64
2016-04-13T04:13:05.017Z,9.54
2016-04-13T04:14:05.036Z,9.58
2016-04-13T04:15:05.054Z,9.56
2016-04-13T04:16:05.057Z,9.58
2016-04-13T04:17:05.074Z,9.62
2016-04-13T04:18:05.124Z,9.51
2016-04-13T04:19:05.127Z,9.62
2016-04-13T04:20:05.145Z,9.65
2016-04-13T04:21:05.148Z,9.69
2016-04-13T04:22:05.150Z,9.68
2016-04-13T04:23:05.184Z,9.77
2016-04-13T04:24:05.203Z,9.66
2016-04-13T04:25:05.206Z,9.61
2016-04-13T04:26:05.239Z,9.69
2016-04-13T04:27:05.257Z,9.68
2016-04-13T04:28:05.260Z,9.72
2016-04-13T04:29:05.295Z,9.66
2016-04-13T04:30:05.297Z,9.64
2016-04-13T04:31:05.315Z,9.66
2016-04-13T04:32:05.334Z,9.69
2016-04-13T04:33:05.353Z,9.68
2016-04-13T04:34:05.370Z,9.59
2016-04-13T04:35:05.404Z,9.59
2016-04-13T04:36:05.422Z,9.73
2016-04-13T04:37:05.441Z,9.65
2016-04-13T04:38:05.444Z,9.68
2016-04-13T04:39:05.461Z,9.73
2016-04-13T04:40:05.480Z,9.68
2016-04-13T04:41:05.514Z,9.73
2016-04-13T04:42:05.517Z,9.74
2016-04-13T04:43:05.520Z,9.8
2016-04-13T04:44:05.538Z,9.74
2016-04-13T04:45:05.556Z,9.76
2016-04-13T04:46:05.574Z,9.82
2016-04-13T04:47:05.593Z,9.76
2016-04-13T04:48:05.642Z,9.82
2016-04-13T04:49:05.660Z,9.74
2016-04-13T04:50:05.663Z,9.8
2016-04-13T04:51:05.651Z,9.82
2016-04-13T04:52:05.668Z,9.76
2016-04-13T04:53:05.734Z,9.82
2016-04-13T04:54:05.751Z,9.82
2016-04-13T04:55:05.754Z,9.82
2016-04-13T04:56:05.773Z,9.73
2016-04-13T04:57:05.792Z,9.76
2016-04-13T04:58:05.841Z,9.72
2016-04-13T04:59:05.860Z,9.74
2016-04-13T05:00:05.893Z,9.72
2016-04-13T05:01:05.834Z,9.68
2016-04-13T05:02:05.851Z,9.62
2016-04-13T05:03:05.886Z,9.61
2016-04-13T05:04:05.889Z,9.55
2016-04-13T05:05:05.906Z,9.56
2016-04-13T05:06:05.941Z,9.62
2016-04-13T05:07:06.006Z,9.62
2016-04-13T05:08:06.008Z,9.56
2016-04-13T05:09:05.995Z,9.58
2016-04-13T05:10:06.045Z,9.54
2016-04-13T05:11:06.048Z,9.59
2016-04-13T05:12:06.050Z,9.62
2016-04-13T05:13:06.038Z,9.59
2016-04-13T05:14:06.055Z,9.58
2016-04-13T05:15:06.074Z,9.61
2016-04-13T05:16:06.107Z,9.55
2016-04-13T05:17:06.110Z,9.66
2016-04-13T05:18:06.129Z,9.73
2016-04-13T05:19:06.147Z,9.66
2016-04-13T05:20:06.150Z,9.58
2016-04-13T05:21:06.184Z,9.65
2016-04-13T05:22:06.219Z,9.66
2016-04-13T05:23:06.236Z,9.73
2016-04-13T05:24:06.223Z,9.72
2016-04-13T05:25:06.273Z,9.66
2016-04-13T05:26:06.260Z,9.72
2016-04-13T05:27:06.294Z,9.82
2016-04-13T05:28:06.296Z,9.84
2016-04-13T05:29:06.315Z,9.74
2016-04-13T05:30:06.349Z,9.79
2016-04-13T05:31:06.351Z,9.87
2016-04-13T05:32:06.354Z,9.84
2016-04-13T05:33:06.403Z,9.89
2016-04-13T05:34:06.407Z,9.87
2016-04-13T05:35:06.456Z,9.92
2016-04-13T05:36:06.428Z,9.82
2016-04-13T05:37:06.352Z,9.77
2016-04-13T05:38:06.464Z,9.8
2016-04-13T05:39:06.482Z,9.92
2016-04-13T05:40:06.501Z,9.84
2016-04-13T05:41:06.535Z,9.89
2016-04-13T05:42:06.569Z,9.94
2016-04-13T05:43:06.555Z,9.95
2016-04-13T05:44:06.589Z,9.98
2016-04-13T05:45:06.608Z,9.95
2016-04-13T05:46:06.626Z,9.91
2016-04-13T05:47:06.629Z,9.97
2016-04-13T05:48:06.663Z,9.97
2016-04-13T05:49:06.649Z,9.89
2016-04-13T05:50:06.699Z,9.92
2016-04-13T05:51:06.718Z,9.91
2016-04-13T05:52:06.970Z,9.98
2016-04-13T05:53:06.770Z,9.95
2016-04-13T05:54:06.774Z,9.87
2016-04-13T05:55:06.760Z,9.99
2016-04-13T05:56:06.778Z,9.99
2016-04-13T05:57:06.859Z,9.94
2016-04-13T05:58:06.862Z,9.89
2016-04-13T05:59:06.834Z,9.86
2016-04-13T06:00:06.898Z,9.77
2016-04-13T06:01:06.870Z,9.74
2016-04-13T06:02:06.904Z,9.76
2016-04-13T06:03:06.890Z,9.76
2016-04-13T06:04:06.925Z,9.76
2016-04-13T06:05:06.927Z,9.83
2016-04-13T06:06:06.962Z,9.82
2016-04-13T06:07:07.026Z,9.77
2016-04-13T06:08:06.998Z,9.8
2016-04-13T06:09:07.017Z,9.68
2016-04-13T06:10:07.081Z,9.72
2016-04-13T06:11:07.366Z,9.79
2016-04-13T06:12:07.087Z,9.74
2016-04-13T06:13:07.122Z,9.79
2016-04-13T06:14:07.124Z,9.83
2016-04-13T06:15:07.126Z,9.77
2016-04-13T06:16:07.144Z,9.77
2016-04-13T06:17:07.147Z,9.76
2016-04-13T06:18:07.165Z,9.77
2016-04-13T06:19:07.183Z,9.73
2016-04-13T06:20:07.186Z,9.89
2016-04-13T06:21:07.221Z,9.95
2016-04-13T06:22:07.254Z,9.99
2016-04-13T06:23:07.258Z,10.07
2016-04-13T06:24:07.260Z,10.09
2016-04-13T06:25:07.293Z,10.15
2016-04-13T06:26:07.296Z,10.04
2016-04-13T06:27:07.330Z,10.09
2016-04-13T06:28:07.333Z,10.1
2016-04-13T06:29:07.351Z,10.09
2016-04-13T06:30:07.370Z,10.12
2016-04-13T06:31:07.388Z,10.12
2016-04-13T06:32:07.422Z,10.02
2016-04-13T06:33:07.425Z,10.05
2016-04-13T06:34:07.442Z,10.13
2016-04-13T06:35:07.461Z,10.17
2016-04-13T06:36:07.479Z,10.13
2016-04-13T06:37:07.575Z,10.26
2016-04-13T06:38:07.517Z,10.19
2016-04-13T06:39:06.769Z,10.26
2016-04-13T06:40:07.568Z,10.3
2016-04-13T06:41:07.572Z,10.3
2016-04-13T06:42:07.589Z,10.26
2016-04-13T06:43:07.592Z,10.31
2016-04-13T06:44:07.610Z,10.13
2016-04-13T06:45:07.628Z,10.15
2016-04-13T06:46:07.647Z,10.23
2016-04-13T06:47:07.666Z,10.19
2016-04-13T06:48:07.683Z,10.17
2016-04-13T06:49:07.702Z,10.13
2016-04-13T06:50:07.720Z,10.22
2016-04-13T06:51:07.724Z,10.07
2016-04-13T06:52:07.788Z,10.02
2016-04-13T06:53:07.775Z,10.04
2016-04-13T06:54:07.793Z,9.97
2016-04-13T06:55:07.796Z,9.92
2016-04-13T06:56:07.830Z,9.84
2016-04-13T06:57:07.833Z,9.99
2016-04-13T06:58:07.867Z,9.86
2016-04-13T06:59:07.885Z,9.83
2016-04-13T07:00:07.904Z,9.92
2016-04-13T07:01:07.921Z,9.89
2016-04-13T07:02:07.940Z,9.97
2016-04-13T07:03:07.193Z,9.94
2016-04-13T07:04:07.961Z,10.09
2016-04-13T07:05:07.995Z,10.09
2016-04-13T07:06:07.998Z,10.07
2016-04-13T07:07:08.203Z,10.13
2016-04-13T07:08:08.019Z,10.12
2016-04-13T07:09:08.036Z,10.15
2016-04-13T07:10:08.070Z,10.17
2016-04-13T07:11:08.089Z,10.3
2016-04-13T07:12:08.107Z,10.37
2016-04-13T07:13:08.125Z,10.42
2016-04-13T07:14:08.144Z,10.51
2016-04-13T07:15:08.163Z,10.57
2016-04-13T07:16:08.181Z,10.69
2016-04-13T07:17:08.183Z,10.69
2016-04-13T07:18:08.217Z,10.78
2016-04-13T07:19:08.220Z,10.76
2016-04-13T07:20:08.254Z,10.87
2016-04-13T07:21:08.242Z,11.05
2016-04-13T07:22:08.338Z,11.08
2016-04-13T07:23:08.310Z,11.19
2016-04-13T07:24:08.328Z,11.35
2016-04-13T07:25:08.346Z,11.35
2016-04-13T07:26:08.364Z,11.55
2016-04-13T07:27:08.366Z,11.57
2016-04-13T07:28:08.401Z,11.69
2016-04-13T07:29:08.388Z,11.81
2016-04-13T07:30:08.421Z,11.91
2016-04-13T07:31:08.440Z,12.09
2016-04-13T07:32:08.473Z,12.24
2016-04-13T07:33:08.476Z,12.28
2016-04-13T07:34:08.495Z,12.36
2016-04-13T07:35:08.497Z,12.43
2016-04-13T07:36:08.532Z,12.53
2016-04-13T07:37:08.659Z,12.58
2016-04-13T07:38:08.568Z,12.7
2016-04-13T07:39:08.587Z,12.83
2016-04-13T07:40:08.605Z,12.94
2016-04-13T07:41:08.467Z,12.87
2016-04-13T07:42:08.642Z,12.87
2016-04-13T07:43:08.675Z,12.93
2016-04-13T07:44:08.694Z,12.91
2016-04-13T07:45:08.711Z,12.87
2016-04-13T07:46:08.730Z,13.03
2016-04-13T07:47:08.764Z,13.04
2016-04-13T07:48:08.766Z,12.97
2016-04-13T07:49:08.769Z,12.9
2016-04-13T07:50:08.819Z,12.8
2016-04-13T07:51:08.822Z,12.79
2016-04-13T07:52:08.794Z,12.91
2016-04-13T07:53:08.874Z,12.98
2016-04-13T07:54:08.877Z,13.05
2016-04-13T07:55:08.910Z,13.16
2016-04-13T07:56:08.929Z,13.13
2016-04-13T07:57:08.947Z,13.31
2016-04-13T07:58:08.981Z,13.25
2016-04-13T07:59:08.969Z,13.2
2016-04-13T08:00:09.002Z,13.16
2016-04-13T08:01:09.021Z,13.09
2016-04-13T08:02:09.055Z,13.09
2016-04-13T08:03:09.057Z,13.03
2016-04-13T08:04:09.076Z,12.93
2016-04-13T08:05:09.093Z,12.76
2016-04-13T08:06:09.112Z,12.8
2016-04-13T08:07:09.334Z,12.65
2016-04-13T08:08:08.997Z,12.79
2016-04-13T08:09:09.156Z,12.67
2016-04-13T08:10:09.205Z,12.73
2016-04-13T08:11:09.208Z,12.78
2016-04-13T08:12:09.227Z,13.03
2016-04-13T08:13:09.244Z,13.23
2016-04-13T08:14:09.264Z,13.38
2016-04-13T08:15:09.266Z,13.44
2016-04-13T08:16:09.316Z,13.44
2016-04-13T08:17:09.163Z,13.72
2016-04-13T08:18:09.352Z,13.85
2016-04-13T08:19:09.355Z,13.71
2016-04-13T08:20:09.405Z,13.68
2016-04-13T08:21:09.407Z,13.67
2016-04-13T08:22:09.441Z,13.57
2016-04-13T08:23:09.444Z,13.71
2016-04-13T08:24:09.447Z,13.71
2016-04-13T08:25:09.497Z,13.68
2016-04-13T08:26:09.499Z,13.79
2016-04-13T08:27:09.518Z,13.83
2016-04-13T08:28:09.551Z,14.04
2016-04-13T08:29:09.570Z,14.28
2016-04-13T08:30:09.635Z,14.41
2016-04-13T08:31:09.606Z,14.32
2016-04-13T08:33:09.642Z,13.92
2016-04-13T08:34:09.661Z,13.74
2016-04-13T08:35:09.679Z,13.72
2016-04-13T08:36:09.713Z,13.47
2016-04-13T08:37:09.763Z,13.41
2016-04-13T08:38:09.750Z,13.37
2016-04-13T08:39:09.753Z,13.52
2016-04-13T08:40:09.802Z,13.68
2016-04-13T08:41:09.805Z,13.92
2016-04-13T08:42:09.839Z,14.15
2016-04-13T08:43:09.841Z,14.44
2016-04-13T08:44:09.875Z,14.51
2016-04-13T08:45:09.893Z,14.5
2016-04-13T08:46:09.911Z,14.6
2016-04-13T08:47:09.930Z,14.6
2016-04-13T08:48:09.964Z,14.51
2016-04-13T08:49:09.967Z,14.32
2016-04-13T08:50:10.002Z,14.45
2016-04-13T08:51:10.019Z,14.59
2016-04-13T08:52:10.069Z,14.85
2016-04-13T08:53:10.071Z,15.07
2016-04-13T08:54:10.090Z,15.17
2016-04-13T08:55:10.093Z,15.29
2016-04-13T08:56:10.111Z,15.39
2016-04-13T08:57:10.192Z,15.46
2016-04-13T08:58:10.163Z,15.52
2016-04-13T08:59:10.182Z,15.37
2016-04-13T09:00:10.199Z,14.99
2016-04-13T09:01:10.234Z,14.72
2016-04-13T09:02:10.252Z,14.47
2016-04-13T09:03:10.270Z,14.36
2016-04-13T09:04:10.289Z,14.12
2016-04-13T09:05:10.306Z,14.05
2016-04-13T09:06:10.325Z,14.14
2016-04-13T09:07:10.343Z,14.15
2016-04-13T09:08:10.237Z,14.04
2016-04-13T09:09:10.395Z,13.79
2016-04-13T09:10:10.398Z,13.74
2016-04-13T09:11:10.417Z,13.75
2016-04-13T09:12:10.450Z,13.78
2016-04-13T09:13:10.469Z,13.72
2016-04-13T09:14:10.487Z,13.79
2016-04-13T09:15:10.522Z,13.71
2016-04-13T09:16:10.524Z,13.77
2016-04-13T09:17:10.542Z,13.97
2016-04-13T09:18:10.560Z,14.07
2016-04-13T09:19:10.594Z,14.32
2016-04-13T09:20:10.628Z,14.47
2016-04-13T09:21:10.616Z,14.53
2016-04-13T09:22:10.650Z,14.91
2016-04-13T09:23:10.668Z,15.19
2016-04-13T09:24:10.702Z,15.54
2016-04-13T09:25:10.704Z,15.72
2016-04-13T09:26:10.738Z,15.8
2016-04-13T09:27:10.757Z,15.75
2016-04-13T09:28:10.775Z,15.76
2016-04-13T09:29:10.794Z,15.79
2016-04-13T09:30:10.812Z,15.76
2016-04-13T09:31:10.830Z,15.77
2016-04-13T09:32:10.864Z,15.91
2016-04-13T09:33:10.882Z,15.95
2016-04-13T09:34:10.900Z,16.12
2016-04-13T09:35:10.934Z,16.24
2016-04-13T09:36:10.953Z,16.39
2016-04-13T09:37:11.267Z,16.41
2016-04-13T09:38:10.990Z,16.56
2016-04-13T09:39:11.023Z,16.68
2016-04-13T09:40:11.042Z,16.65
2016-04-13T09:41:11.075Z,16.6
2016-04-13T09:42:11.094Z,16.76
2016-04-13T09:43:11.097Z,16.78
2016-04-13T09:44:11.130Z,16.93
2016-04-13T09:45:11.149Z,16.91
2016-04-13T09:46:11.183Z,16.91
2016-04-13T09:47:11.169Z,16.81
2016-04-13T09:48:11.235Z,16.76
2016-04-13T09:49:11.222Z,16.75
2016-04-13T09:50:11.256Z,16.72
2016-04-13T09:51:11.306Z,16.61
2016-04-13T09:52:11.308Z,16.64
2016-04-13T09:53:11.311Z,16.61
2016-04-13T09:54:11.338Z,16.64
2016-04-13T09:55:12.447Z,16.6
2016-04-13T09:56:11.407Z,16.74
2016-04-13T09:57:11.394Z,16.74
2016-04-13T09:58:11.460Z,16.72
2016-04-13T09:59:11.479Z,16.84
2016-04-13T10:00:11.489Z,16.96
2016-04-13T10:01:11.505Z,16.89
2016-04-13T10:02:11.524Z,16.99
2016-04-13T10:03:11.527Z,16.93
2016-04-13T10:04:11.240Z,17.11
2016-04-13T10:05:12.726Z,17.19
2016-04-13T10:06:11.604Z,17.14
2016-04-13T10:07:11.481Z,17.09
2016-04-13T10:08:11.531Z,16.96
2016-04-13T10:09:11.674Z,16.61
2016-04-13T10:10:11.692Z,16.46
2016-04-13T10:11:11.711Z,16.38
2016-04-13T10:12:11.729Z,16.54
2016-04-13T10:13:27.497Z,16.57
2016-04-13T10:14:23.594Z,16.66
2016-04-13T10:15:22.425Z,16.58
2016-04-13T10:16:22.271Z,16.56
2016-04-13T10:17:11.853Z,16.58
2016-04-13T10:18:11.870Z,16.6
2016-04-13T10:19:11.873Z,16.72
2016-04-13T10:20:11.908Z,16.87
2016-04-13T10:21:11.941Z,16.57
2016-04-13T10:22:11.960Z,16.29
2016-04-13T10:23:11.822Z,16.21
2016-04-13T10:24:11.996Z,16.28
2016-04-13T10:25:12.030Z,16.2
2016-04-13T10:26:12.049Z,16.38
2016-04-13T10:27:12.066Z,16.47
2016-04-13T10:28:12.085Z,16.58
2016-04-13T10:29:12.119Z,16.6
2016-04-13T10:30:12.582Z,16.51
2016-04-13T10:31:12.147Z,16.23
2016-04-13T10:32:12.197Z,15.88
2016-04-13T10:33:12.137Z,15.95
2016-04-13T10:34:12.233Z,16
2016-04-13T10:35:12.251Z,16.09
2016-04-13T10:36:12.254Z,16.21
2016-04-13T10:37:12.319Z,16.01
2016-04-13T10:38:12.304Z,16
2016-04-13T10:39:12.323Z,15.75
2016-04-13T10:40:12.342Z,15.55
2016-04-13T10:41:12.390Z,15.43
2016-04-13T10:42:12.409Z,15.43
2016-04-13T10:43:12.412Z,15.37
2016-04-13T10:44:12.431Z,15.27
2016-04-13T10:45:12.448Z,15.22
2016-04-13T10:46:12.482Z,15.11
2016-04-13T10:47:12.500Z,14.97
2016-04-13T10:48:12.519Z,14.86
2016-04-13T10:49:12.553Z,14.89
2016-04-13T10:50:12.571Z,14.97
2016-04-13T10:51:12.574Z,15.07
2016-04-13T10:52:12.607Z,15.11
2016-04-13T10:53:12.641Z,15.11
2016-04-13T10:54:12.660Z,15.18
2016-04-13T10:55:17.257Z,15.4
2016-04-13T10:56:23.978Z,15.29
2016-04-13T10:57:30.402Z,15.28
2016-04-13T10:58:28.577Z,15.29
2016-04-13T10:59:28.252Z,15.46
2016-04-13T11:00:23.098Z,15.55
2016-04-13T11:01:26.313Z,15.62
2016-04-13T11:02:27.971Z,15.77
2016-04-13T11:03:42.846Z,15.75
2016-04-13T11:04:36.500Z,15.76
2016-04-13T11:05:41.453Z,15.84
2016-04-13T11:06:36.978Z,15.94
2016-04-13T11:07:44.153Z,16.02
2016-04-13T11:09:01.983Z,16.04
2016-04-13T11:10:04.018Z,15.97
2016-04-13T11:11:21.297Z,15.97
2016-04-13T11:12:26.727Z,15.97
2016-04-13T11:13:25.813Z,16.01
2016-04-13T11:15:25.157Z,16.32
2016-04-13T11:16:20.584Z,16.43
2016-04-13T11:17:35.182Z,16.49
2016-04-13T11:19:02.624Z,16.42
2016-04-13T11:19:43.535Z,16.5
2016-04-13T11:20:44.431Z,16.28
2016-04-13T11:21:48.684Z,16.1
2016-04-13T11:22:38.796Z,16.09
2016-04-13T11:23:38.066Z,16.09
2016-04-13T11:24:38.085Z,15.9
2016-04-13T11:25:38.120Z,15.67
2016-04-13T11:26:38.154Z,15.73
2016-04-13T11:27:41.157Z,15.76
2016-04-13T11:28:38.019Z,15.77
2016-04-13T11:29:38.180Z,15.77
2016-04-13T11:30:38.229Z,15.8
2016-04-13T11:31:38.247Z,15.88
2016-04-13T11:32:38.265Z,15.83
2016-04-13T11:33:38.269Z,15.84
2016-04-13T11:34:38.286Z,15.75
2016-04-13T11:35:38.321Z,15.83
2016-04-13T11:36:38.339Z,15.8
2016-04-13T11:37:38.357Z,15.82
2016-04-13T11:38:38.375Z,15.9
2016-04-13T11:39:38.424Z,15.84
2016-04-13T11:40:38.427Z,15.79
2016-04-13T11:41:38.477Z,15.92
2016-04-13T11:42:38.464Z,15.92
2016-04-13T11:43:38.513Z,15.94
2016-04-13T11:44:38.516Z,16
2016-04-13T11:45:38.534Z,15.97
2016-04-13T11:46:38.569Z,15.8
2016-04-13T11:47:38.571Z,15.75
2016-04-13T11:48:38.621Z,15.84
2016-04-13T11:49:38.640Z,15.75
2016-04-13T11:50:38.642Z,15.79
2016-04-13T11:51:38.659Z,15.65
2016-04-13T11:52:38.678Z,15.7
2016-04-13T11:53:38.728Z,15.95
2016-04-13T11:54:38.731Z,16.16
2016-04-13T11:55:38.765Z,16.36
2016-04-13T11:56:39.064Z,16.41
2016-04-13T11:57:38.801Z,16.53
2016-04-13T11:58:38.819Z,16.56
2016-04-13T11:59:38.838Z,16.5
2016-04-13T12:00:38.872Z,16.47
2016-04-13T12:01:38.875Z,16.46
2016-04-13T12:02:38.908Z,16.47
2016-04-13T12:03:38.942Z,16.53
2016-04-13T12:04:38.961Z,16.54
2016-04-13T12:05:38.964Z,16.58
2016-04-13T12:06:38.982Z,16.65
2016-04-13T12:07:39.016Z,16.68
2016-04-13T12:08:39.035Z,16.54
2016-04-13T12:09:39.069Z,16.5
2016-04-13T12:10:39.072Z,16.39
2016-04-13T12:11:39.106Z,16.38
2016-04-13T12:12:39.124Z,16.17
2016-04-13T12:13:39.142Z,16.01
2016-04-13T12:14:39.161Z,16.02
2016-04-13T12:15:39.211Z,16.24
2016-04-13T12:16:39.228Z,16.42
2016-04-13T12:17:39.216Z,16.64
2016-04-13T12:18:39.265Z,16.64
2016-04-13T12:19:39.283Z,16.38
2016-04-13T12:20:39.286Z,16.43
2016-04-13T12:21:39.320Z,16.33
2016-04-13T12:22:39.338Z,16.28
2016-04-13T12:23:39.372Z,16.17
2016-04-13T12:24:39.390Z,16.12
2016-04-13T12:25:39.424Z,16.09
2016-04-13T12:26:39.443Z,16.21
2016-04-13T12:27:39.477Z,16.21
2016-04-13T12:28:39.479Z,16.2
2016-04-13T12:29:39.498Z,16.1
2016-04-13T12:30:39.423Z,16.16
2016-04-13T12:31:39.550Z,16.05
2016-04-13T12:32:39.585Z,16
2016-04-13T12:33:39.571Z,15.88
2016-04-13T12:34:39.606Z,15.9
2016-04-13T12:35:39.623Z,15.97
2016-04-13T12:36:39.656Z,16.01
2016-04-13T12:37:39.676Z,15.95
2016-04-13T12:38:39.694Z,15.91
2016-04-13T12:39:39.556Z,16.15
2016-04-13T12:40:39.731Z,16.2
2016-04-13T12:41:39.750Z,16.09
2016-04-13T12:42:39.783Z,16.17
2016-04-13T12:43:39.801Z,16.28
2016-04-13T12:44:39.819Z,16.38
2016-04-13T12:45:39.838Z,16.42
2016-04-13T12:46:39.903Z,16.39
2016-04-13T12:47:39.890Z,16.53
2016-04-13T12:48:39.924Z,16.38
2016-04-13T12:49:39.927Z,16.39
2016-04-13T12:50:39.961Z,16.28
2016-04-13T12:51:39.995Z,16.39
2016-04-13T12:52:39.997Z,16.43
2016-04-13T12:53:40.031Z,16.57
2016-04-13T12:54:40.049Z,16.65
2016-04-13T12:55:40.052Z,16.66
2016-04-13T12:56:40.086Z,16.56
2016-04-13T12:57:40.121Z,16.51
2016-04-13T12:58:40.107Z,16.35
2016-04-13T12:59:40.157Z,16.24
2016-04-13T13:00:40.175Z,16.28
2016-04-13T13:01:40.193Z,16.47
2016-04-13T13:02:40.212Z,16.5
2016-04-13T13:03:40.230Z,16.43
2016-04-13T13:04:40.265Z,16.33
2016-04-13T13:05:40.298Z,16.21
2016-04-13T13:06:40.300Z,16.16
2016-04-13T13:07:40.319Z,16.2
2016-04-13T13:08:40.353Z,16.16
2016-04-13T13:09:40.356Z,16.29
2016-04-13T13:10:40.373Z,16.32